메인 페이지
METAR-TAF:

METAR-TAF

공항 :

Eppley Airfield

오마하, 네브래스카, 미국

위도: 41-18-37N, 경도: 095-53-57W, 고도: 299m

현재 날씨관측

예보는 47분 전, 17:52시(UTC)에 발표되었습니다.
9kt
온도 12°C
습도 47%
기압 1019 hPa
시정: 16.1km
고도 18000ft 상공 구름 조금
고도 25000ft 상공 구름 많음

METAR: KOMA 051752Z 18009KT 10SM FEW180 BKN250 12/01 A3009 RMK AO2 SLP194 I6000 T01220011 10122 21006 58005 $

시각: 13:39 (18:39 UTC)

예보

예보는 1 시간 4분 전, 17:35시(UTC)에 발표되었습니다.
예보 대상 시간: 05일 18시부터 06일 18시까지 (UTC)
남남동10kt
시정: 10km
고도 10000ft 상공 구름 보통
06일 0700시부터 (UTC)
남남동10kt
시정: 10km
고도 4000ft 상공 구름 많음
약한이슬비
06일 1100시부터 (UTC)
남남동9kt
시정: 9.7km
고도 1000ft 상공 흐림
약한이슬비

TAF: KOMA 051735Z 0518/0618 16010KT P6SM SCT100 FM060700 16010KT P6SM -DZ BKN040 FM061100 16009KT 6SM -DZ OVC010

4,000개 이상의 공항 관측 자료 및 예보 (METAR 및 TAF 보고).

지도상에서 검색 가능한 기상관측소가 노란 점과 빨간 점으로 표시되어 있습니다.

기상관측소 명을 보려면 표시 위로 마우스를 이동하세요.

날씨 관측과 예보를 보려면 클릭하세요.

지도 변경 : 확대하려면 엑스 표시가 있는 녹색 버튼, 축소하려면 빼기 표시가 있는 녹색 버튼, 다음 페이지의 지도를 보려면 녹색 화살표를 클릭하세요.


METAR-TAF: